createdAt,value
2019-03-08T00:01:58.623Z,100.00
2019-03-08T00:04:30.006Z,100.00
2019-03-08T00:07:01.346Z,100.00
2019-03-08T00:09:33.581Z,100.00
2019-03-08T00:12:04.906Z,100.00
2019-03-08T00:14:36.224Z,100.00
2019-03-08T00:17:09.219Z,100.00
2019-03-08T00:19:40.625Z,100.00
2019-03-08T00:22:12.085Z,100.00
2019-03-08T00:24:43.523Z,100.00
2019-03-08T00:27:15.068Z,100.00
2019-03-08T00:29:46.465Z,100.00
2019-03-08T00:32:17.791Z,100.00
2019-03-08T00:34:49.256Z,100.00
2019-03-08T00:37:20.895Z,100.00
2019-03-08T00:39:52.448Z,100.00
2019-03-08T00:42:23.799Z,100.00
2019-03-08T00:44:55.184Z,100.00
2019-03-08T00:47:26.692Z,100.00
2019-03-08T00:49:58.235Z,100.00
2019-03-08T00:52:29.590Z,100.00
2019-03-08T00:55:00.892Z,100.00
2019-03-08T00:57:32.338Z,100.00
2019-03-08T01:00:05.246Z,100.00
2019-03-08T01:02:37.163Z,100.00
2019-03-08T01:05:09.463Z,100.00
2019-03-08T01:07:41.036Z,100.00
2019-03-08T01:10:14.197Z,100.00
2019-03-08T01:12:45.713Z,100.00
2019-03-08T01:15:18.008Z,100.00
2019-03-08T01:17:49.399Z,100.00
2019-03-08T01:20:20.916Z,100.00
2019-03-08T01:22:52.196Z,100.00
2019-03-08T01:25:23.717Z,100.00
2019-03-08T01:28:02.992Z,100.00
2019-03-08T01:30:34.952Z,100.00
2019-03-08T01:33:06.870Z,100.00
2019-03-08T01:35:38.241Z,100.00
2019-03-08T01:38:09.565Z,100.00
2019-03-08T01:40:40.927Z,100.00
2019-03-08T01:43:12.884Z,100.00
2019-03-08T01:45:44.151Z,100.00
2019-03-08T01:48:15.578Z,100.00
2019-03-08T01:50:47.019Z,100.00
2019-03-08T01:53:18.357Z,100.00
2019-03-08T01:55:49.850Z,100.00
2019-03-08T01:58:21.432Z,100.00
2019-03-08T02:00:52.749Z,100.00
2019-03-08T02:03:24.148Z,100.00
2019-03-08T02:05:55.652Z,100.00
2019-03-08T02:08:26.991Z,100.00
2019-03-08T02:11:00.278Z,100.00
2019-03-08T02:13:31.603Z,100.00
2019-03-08T02:16:02.987Z,100.00
2019-03-08T02:18:34.388Z,100.00
2019-03-08T02:21:07.020Z,100.00
2019-03-08T02:23:38.850Z,100.00
2019-03-08T02:26:10.309Z,100.00
2019-03-08T02:28:41.681Z,100.00
2019-03-08T02:31:13.181Z,100.00
2019-03-08T02:33:46.146Z,100.00
2019-03-08T02:36:17.535Z,100.00
2019-03-08T02:38:48.858Z,100.00
2019-03-08T02:41:20.211Z,100.00
2019-03-08T02:43:51.542Z,100.00
2019-03-08T02:46:22.814Z,100.00
2019-03-08T02:48:54.237Z,100.00
2019-03-08T02:51:25.748Z,100.00
2019-03-08T02:53:57.167Z,100.00
2019-03-08T02:56:28.447Z,100.00
2019-03-08T02:59:00.060Z,100.00
2019-03-08T03:01:31.577Z,100.00
2019-03-08T03:04:03.083Z,100.00
2019-03-08T03:06:34.473Z,100.00
2019-03-08T03:09:06.930Z,100.00
2019-03-08T03:11:40.437Z,100.00
2019-03-08T03:14:11.833Z,100.00
2019-03-08T03:16:44.970Z,100.00
2019-03-08T03:19:16.596Z,100.00
2019-03-08T03:21:48.283Z,98.59
2019-03-08T03:24:20.028Z,96.49
2019-03-08T03:26:51.471Z,94.35
2019-03-08T03:29:22.786Z,93.24
2019-03-08T03:31:54.133Z,91.86
2019-03-08T03:34:25.813Z,90.66
2019-03-08T03:36:57.298Z,89.05
2019-03-08T03:39:28.676Z,87.35
2019-03-08T03:42:02.070Z,85.87
2019-03-08T03:44:40.730Z,84.55
2019-03-08T03:47:16.681Z,82.15
2019-03-08T03:49:48.272Z,80.67
2019-03-08T03:52:19.708Z,80.50
2019-03-08T03:54:51.130Z,81.11
2019-03-08T03:57:22.498Z,81.04
2019-03-08T03:59:53.936Z,81.13
2019-03-08T04:02:25.755Z,82.05
2019-03-08T04:04:57.102Z,82.08
2019-03-08T04:07:28.381Z,82.48
2019-03-08T04:09:59.759Z,82.56
2019-03-08T04:12:31.256Z,81.51
2019-03-08T04:15:04.069Z,81.06
2019-03-08T04:17:35.910Z,80.18
2019-03-08T04:20:09.051Z,79.78
2019-03-08T04:22:40.559Z,79.72
2019-03-08T04:25:13.248Z,79.48
2019-03-08T04:27:44.727Z,78.23
2019-03-08T04:30:21.026Z,78.00
2019-03-08T04:32:54.812Z,77.21
2019-03-08T04:35:34.395Z,75.77
2019-03-08T04:38:12.005Z,75.95
2019-03-08T04:40:45.483Z,75.08
2019-03-08T04:43:16.960Z,74.35
2019-03-08T04:45:48.516Z,73.48
2019-03-08T04:48:28.809Z,73.41
2019-03-08T04:51:04.785Z,73.06
2019-03-08T04:53:36.331Z,73.51
2019-03-08T04:56:13.229Z,73.06
2019-03-08T04:58:48.060Z,73.75
2019-03-08T05:01:27.498Z,72.98
2019-03-08T05:04:10.937Z,72.45
2019-03-08T05:07:03.359Z,71.99
2019-03-08T05:09:34.940Z,71.12
2019-03-08T05:12:06.650Z,71.54
2019-03-08T05:14:45.110Z,72.50
2019-03-08T05:17:16.729Z,72.28
2019-03-08T05:19:51.358Z,71.93
2019-03-08T05:22:23.685Z,72.86
2019-03-08T05:25:20.411Z,72.45
2019-03-08T05:27:59.079Z,72.45
2019-03-08T05:30:36.066Z,70.98
2019-03-08T05:33:07.922Z,70.78
2019-03-08T05:35:41.533Z,70.09
2019-03-08T05:38:13.157Z,70.78
2019-03-08T05:40:48.759Z,71.48
2019-03-08T05:43:38.102Z,71.49
2019-03-08T05:46:13.893Z,71.81
2019-03-08T05:48:51.687Z,70.24
2019-03-08T05:51:26.130Z,70.16
2019-03-08T05:53:58.989Z,69.45
2019-03-08T05:56:39.271Z,69.73
2019-03-08T05:59:10.870Z,69.16
2019-03-08T06:01:48.760Z,69.09
2019-03-08T06:04:21.295Z,68.88
2019-03-08T06:07:03.381Z,69.24
2019-03-08T06:09:40.755Z,68.79
2019-03-08T06:12:19.319Z,69.00
2019-03-08T06:14:59.886Z,69.04
2019-03-08T06:17:40.080Z,68.96
2019-03-08T06:20:11.535Z,69.27
2019-03-08T06:22:43.076Z,69.74
2019-03-08T06:25:14.517Z,69.68
2019-03-08T06:27:46.632Z,69.97
2019-03-08T06:30:22.813Z,69.88
2019-03-08T06:32:54.543Z,69.93
2019-03-08T06:35:25.935Z,69.52
2019-03-08T06:37:57.337Z,70.05
2019-03-08T06:40:29.762Z,70.10
2019-03-08T06:43:02.243Z,70.40
2019-03-08T06:45:34.119Z,70.20
2019-03-08T06:48:10.229Z,70.29
2019-03-08T06:50:41.771Z,70.21
2019-03-08T06:53:15.187Z,70.91
2019-03-08T06:55:46.714Z,71.43
2019-03-08T06:58:39.294Z,70.95
2019-03-08T07:01:13.900Z,70.75
2019-03-08T07:03:45.531Z,71.15
2019-03-08T07:06:23.243Z,70.66
2019-03-08T07:08:55.508Z,70.66
2019-03-08T07:11:30.816Z,69.83
2019-03-08T07:14:04.300Z,69.76
2019-03-08T07:16:42.074Z,69.22
2019-03-08T07:19:13.523Z,69.13
2019-03-08T07:21:59.678Z,69.68
2019-03-08T07:24:50.622Z,68.86
2019-03-08T07:27:45.674Z,68.85
2019-03-08T07:30:36.244Z,69.21
2019-03-08T07:33:16.423Z,69.05
2019-03-08T07:36:01.148Z,68.86
2019-03-08T07:39:08.103Z,68.78
2019-03-08T07:41:59.277Z,68.78
2019-03-08T07:44:55.983Z,67.99
2019-03-08T07:47:49.700Z,68.31
2019-03-08T07:50:40.610Z,67.54
2019-03-08T07:53:33.675Z,66.95
2019-03-08T07:56:15.803Z,65.98
2019-03-08T07:59:19.856Z,64.70
2019-03-08T08:02:25.237Z,64.87
2019-03-08T08:05:28.887Z,64.63
2019-03-08T08:08:13.068Z,64.22
2019-03-08T08:11:05.021Z,62.62
2019-03-08T08:14:06.989Z,61.60
2019-03-08T08:17:00.419Z,62.45
2019-03-08T08:19:56.913Z,61.53
2019-03-08T08:22:57.122Z,62.12
2019-03-08T08:25:47.768Z,60.87
2019-03-08T08:28:27.668Z,61.17
2019-03-08T08:31:21.770Z,60.73
2019-03-08T08:34:12.212Z,59.87
2019-03-08T08:37:17.659Z,56.43
2019-03-08T08:40:11.273Z,57.54
2019-03-08T08:43:01.385Z,58.10
2019-03-08T08:45:54.877Z,56.33
2019-03-08T08:48:53.442Z,55.25
2019-03-08T08:52:02.818Z,55.50
2019-03-08T08:54:52.252Z,54.94
2019-03-08T08:57:45.680Z,55.29
2019-03-08T09:00:27.588Z,56.55
2019-03-08T09:03:30.807Z,55.36
2019-03-08T09:06:27.418Z,56.62
2019-03-08T09:09:24.213Z,56.55
2019-03-08T09:12:07.333Z,55.20
2019-03-08T09:14:53.590Z,55.09
2019-03-08T09:17:42.489Z,54.28
2019-03-08T09:20:35.863Z,53.82
2019-03-08T09:23:24.890Z,53.75
2019-03-08T09:26:08.237Z,53.39
2019-03-08T09:28:54.524Z,53.83
2019-03-08T09:31:44.935Z,54.06
2019-03-08T09:34:31.820Z,54.93
2019-03-08T09:37:12.799Z,53.28
2019-03-08T09:40:12.372Z,53.59
2019-03-08T09:42:59.647Z,54.03
2019-03-08T09:45:48.743Z,54.97
2019-03-08T09:48:39.358Z,53.97
2019-03-08T09:51:24.383Z,54.84
2019-03-08T09:54:02.722Z,54.61
2019-03-08T09:56:53.100Z,54.91
2019-03-08T09:59:33.480Z,56.06
2019-03-08T10:02:17.055Z,55.50
2019-03-08T10:05:06.971Z,55.39
2019-03-08T10:08:00.532Z,55.09
2019-03-08T10:10:59.511Z,54.23
2019-03-08T10:13:56.766Z,54.24
2019-03-08T10:16:50.353Z,51.04
2019-03-08T10:19:40.891Z,52.08
2019-03-08T10:22:27.486Z,52.20
2019-03-08T10:25:18.346Z,49.67
2019-03-08T10:27:56.759Z,50.38
2019-03-08T10:30:37.011Z,50.63
2019-03-08T10:33:17.959Z,49.92
2019-03-08T10:36:11.648Z,50.87
2019-03-08T10:38:54.380Z,50.43
2019-03-08T10:41:44.603Z,52.72
2019-03-08T10:44:40.693Z,52.48
2019-03-08T10:47:39.568Z,51.31
2019-03-08T10:50:24.979Z,50.73
2019-03-08T10:53:05.432Z,50.79
2019-03-08T10:55:57.589Z,50.92
2019-03-08T10:58:48.724Z,50.45
2019-03-08T11:01:40.495Z,51.69
2019-03-08T11:04:36.899Z,51.06
2019-03-08T11:07:35.270Z,50.34
2019-03-08T11:10:26.298Z,50.37
2019-03-08T11:13:27.554Z,49.37
2019-03-08T11:16:24.975Z,50.80
2019-03-08T11:19:17.087Z,51.28
2019-03-08T11:22:17.130Z,50.93
2019-03-08T11:25:10.586Z,51.68
2019-03-08T11:28:20.984Z,50.35
2019-03-08T11:31:05.322Z,51.27
2019-03-08T11:34:07.771Z,50.29
2019-03-08T11:36:44.257Z,51.79
2019-03-08T11:39:45.474Z,51.93
2019-03-08T11:42:37.168Z,50.55
2019-03-08T11:45:31.748Z,50.66
2019-03-08T11:48:26.890Z,50.59
2019-03-08T11:51:38.509Z,50.25
2019-03-08T11:54:46.014Z,50.08
2019-03-08T11:57:35.179Z,51.16
2019-03-08T12:00:24.355Z,49.67
2019-03-08T12:03:13.490Z,50.89
2019-03-08T12:05:58.014Z,50.92
2019-03-08T12:08:48.328Z,53.32
2019-03-08T12:11:40.466Z,51.21
2019-03-08T12:14:38.334Z,49.96
2019-03-08T12:17:27.525Z,50.12
2019-03-08T12:20:23.791Z,51.83
2019-03-08T12:23:08.331Z,52.07
2019-03-08T12:25:46.314Z,50.07
2019-03-08T12:28:35.683Z,51.28
2019-03-08T12:31:27.095Z,50.25
2019-03-08T12:34:17.171Z,50.37
2019-03-08T12:37:12.477Z,49.53
2019-03-08T12:40:03.180Z,50.08
2019-03-08T12:42:50.624Z,50.00
2019-03-08T12:45:31.828Z,49.16
2019-03-08T12:48:23.893Z,50.62
2019-03-08T12:51:10.526Z,50.53
2019-03-08T12:54:10.188Z,49.60
2019-03-08T12:57:08.928Z,51.10
2019-03-08T13:00:08.807Z,52.57
2019-03-08T13:02:49.657Z,51.82
2019-03-08T13:05:35.883Z,51.03
2019-03-08T13:08:24.849Z,50.98
2019-03-08T13:10:56.277Z,51.99
2019-03-08T13:13:27.697Z,49.44
2019-03-08T13:15:59.113Z,49.82
2019-03-08T13:18:30.859Z,50.98
2019-03-08T13:21:02.462Z,50.67
2019-03-08T13:23:34.098Z,50.52
2019-03-08T13:26:05.467Z,50.45
2019-03-08T13:28:36.944Z,51.15
2019-03-08T13:31:08.782Z,51.28
2019-03-08T13:33:40.191Z,52.19
2019-03-08T13:36:11.604Z,52.38
2019-03-08T13:38:43.091Z,52.27
2019-03-08T13:41:14.491Z,52.80
2019-03-08T13:43:46.036Z,52.77
2019-03-08T13:46:17.533Z,51.72
2019-03-08T13:48:49.142Z,51.81
2019-03-08T13:51:20.730Z,51.21
2019-03-08T13:53:52.202Z,51.05
2019-03-08T13:56:23.486Z,51.80
2019-03-08T13:58:54.842Z,52.40
2019-03-08T14:01:26.305Z,51.73
2019-03-08T14:03:57.666Z,50.50
2019-03-08T14:06:29.323Z,50.50
2019-03-08T14:09:00.615Z,49.59
2019-03-08T14:11:31.910Z,48.31
2019-03-08T14:14:03.288Z,47.35
2019-03-08T14:16:34.642Z,48.11
2019-03-08T14:19:06.463Z,48.69
2019-03-08T14:21:37.965Z,48.72
2019-03-08T14:24:09.724Z,48.73
2019-03-08T14:26:41.235Z,48.24
2019-03-08T14:29:12.835Z,48.73
2019-03-08T14:32:09.092Z,48.73
2019-03-08T14:34:42.103Z,48.36
2019-03-08T14:37:16.098Z,48.32
2019-03-08T14:39:46.448Z,48.18
2019-03-08T14:42:31.591Z,48.60
2019-03-08T14:45:10.595Z,48.72
2019-03-08T14:48:05.842Z,48.29
2019-03-08T14:50:36.971Z,47.96
2019-03-08T14:53:08.440Z,47.67
2019-03-08T14:55:39.770Z,47.56
2019-03-08T14:58:12.468Z,46.82
2019-03-08T15:00:43.967Z,45.99
2019-03-08T15:03:15.481Z,45.70
2019-03-08T15:05:46.947Z,46.38
2019-03-08T15:08:19.284Z,46.18
2019-03-08T15:10:51.458Z,46.48
2019-03-08T15:13:24.075Z,47.93
2019-03-08T15:15:57.821Z,48.32
2019-03-08T15:18:29.765Z,48.36
2019-03-08T15:21:02.201Z,49.11
2019-03-08T15:23:33.625Z,50.00
2019-03-08T15:26:06.022Z,49.54
2019-03-08T15:28:37.452Z,49.65
2019-03-08T15:31:09.110Z,49.49
2019-03-08T15:33:40.624Z,50.63
2019-03-08T15:36:11.975Z,50.90
2019-03-08T15:38:44.020Z,50.37
2019-03-08T15:41:15.852Z,50.83
2019-03-08T15:43:51.353Z,50.85
2019-03-08T15:46:22.385Z,52.19
2019-03-08T15:48:54.826Z,51.40
2019-03-08T15:51:26.999Z,52.33
2019-03-08T15:53:58.441Z,53.27
2019-03-08T15:56:29.754Z,53.42
2019-03-08T15:59:03.284Z,51.90
2019-03-08T16:01:34.997Z,51.90
2019-03-08T16:04:08.247Z,51.81
2019-03-08T16:06:43.219Z,50.53
2019-03-08T16:09:12.698Z,50.10
2019-03-08T16:11:46.020Z,50.38
2019-03-08T16:14:17.167Z,50.51
2019-03-08T16:16:48.806Z,51.02
2019-03-08T16:19:20.815Z,51.16
2019-03-08T16:21:53.153Z,51.75
2019-03-08T16:24:27.182Z,52.10
2019-03-08T16:26:58.805Z,52.76
2019-03-08T16:29:30.834Z,53.07
2019-03-08T16:32:14.087Z,53.28
2019-03-08T16:34:45.246Z,53.90
2019-03-08T16:37:38.031Z,52.96
2019-03-08T16:40:43.239Z,53.67
2019-03-08T16:43:42.116Z,54.19
2019-03-08T16:46:34.274Z,54.19
2019-03-08T16:49:20.949Z,53.96
2019-03-08T16:52:14.050Z,54.47
2019-03-08T16:55:01.680Z,54.48
2019-03-08T16:57:54.998Z,55.86
2019-03-08T17:00:40.542Z,55.56
2019-03-08T17:03:26.423Z,57.07
2019-03-08T17:06:05.310Z,57.79
2019-03-08T17:09:01.796Z,58.81
2019-03-08T17:11:48.807Z,58.81
2019-03-08T17:14:33.252Z,60.44
2019-03-08T17:17:21.697Z,61.40
2019-03-08T17:20:15.041Z,61.66
2019-03-08T17:23:08.614Z,62.27
2019-03-08T17:25:58.952Z,62.97
2019-03-08T17:28:45.298Z,63.49
2019-03-08T17:31:23.738Z,63.52
2019-03-08T17:34:02.681Z,63.92
2019-03-08T17:36:43.039Z,63.98
2019-03-08T17:39:19.109Z,64.30
2019-03-08T17:42:08.361Z,64.39
2019-03-08T17:44:57.555Z,64.37
2019-03-08T17:47:51.010Z,64.88
2019-03-08T17:50:44.552Z,64.70
2019-03-08T17:53:35.085Z,64.59
2019-03-08T17:56:19.830Z,64.92
2019-03-08T17:58:57.821Z,64.71
2019-03-08T18:01:44.381Z,65.14
2019-03-08T18:04:37.838Z,65.44
2019-03-08T18:07:21.039Z,65.68
2019-03-08T18:10:10.106Z,65.52
2019-03-08T18:13:15.863Z,65.52
2019-03-08T18:16:07.371Z,65.71
2019-03-08T18:18:57.648Z,65.84
2019-03-08T18:21:56.616Z,66.30
2019-03-08T18:24:48.864Z,65.53
2019-03-08T18:27:42.208Z,66.53
2019-03-08T18:30:26.405Z,67.12
2019-03-08T18:33:16.682Z,67.37
2019-03-08T18:36:12.715Z,67.92
2019-03-08T18:39:12.628Z,68.21
2019-03-08T18:42:18.230Z,68.81
2019-03-08T18:45:07.226Z,69.20
2019-03-08T18:48:06.700Z,69.44
2019-03-08T18:51:01.360Z,69.95
2019-03-08T18:53:54.984Z,70.43
2019-03-08T18:56:56.819Z,71.00
2019-03-08T18:59:37.898Z,71.59
2019-03-08T19:02:27.075Z,71.99
2019-03-08T19:05:29.353Z,72.36
2019-03-08T19:08:28.923Z,72.81
2019-03-08T19:11:10.210Z,72.93
2019-03-08T19:13:49.582Z,73.23
2019-03-08T19:16:35.936Z,73.92
2019-03-08T19:19:26.233Z,74.33
2019-03-08T19:22:16.009Z,74.59
2019-03-08T19:24:52.712Z,74.77
2019-03-08T19:27:45.917Z,75.15
2019-03-08T19:30:39.601Z,75.26
2019-03-08T19:33:27.157Z,75.47
2019-03-08T19:36:10.587Z,75.71
2019-03-08T19:39:01.176Z,75.73
2019-03-08T19:41:48.087Z,75.62
2019-03-08T19:44:26.562Z,75.14
2019-03-08T19:47:09.859Z,74.62
2019-03-08T19:49:58.817Z,74.09
2019-03-08T19:53:09.251Z,73.86
2019-03-08T19:55:58.541Z,73.64
2019-03-08T19:58:47.704Z,73.65
2019-03-08T20:01:43.115Z,73.76
2019-03-08T20:04:18.864Z,73.72
2019-03-08T20:07:08.124Z,73.91
2019-03-08T20:09:56.657Z,74.46
2019-03-08T20:12:47.418Z,74.71
2019-03-08T20:15:37.686Z,75.32
2019-03-08T20:18:22.475Z,75.56
2019-03-08T20:21:04.139Z,75.82
2019-03-08T20:23:51.712Z,75.65
2019-03-08T20:26:40.631Z,75.52
2019-03-08T20:29:41.212Z,74.98
2019-03-08T20:32:31.352Z,74.89
2019-03-08T20:35:08.379Z,75.08
2019-03-08T20:38:01.825Z,75.34
2019-03-08T20:40:55.354Z,75.85
2019-03-08T20:43:35.549Z,75.73
2019-03-08T20:46:10.213Z,75.49
2019-03-08T20:48:41.529Z,75.48
2019-03-08T20:51:13.160Z,75.00
2019-03-08T20:53:44.989Z,74.35
2019-03-08T20:56:16.436Z,74.32
2019-03-08T20:58:48.058Z,74.25
2019-03-08T21:01:19.381Z,74.39
2019-03-08T21:03:50.762Z,73.97
2019-03-08T21:06:22.306Z,73.42
2019-03-08T21:08:53.613Z,73.10
2019-03-08T21:11:25.024Z,73.15
2019-03-08T21:13:56.742Z,73.27
2019-03-08T21:16:28.105Z,73.58
2019-03-08T21:18:59.656Z,73.96
2019-03-08T21:21:31.209Z,74.29
2019-03-08T21:24:02.505Z,74.72
2019-03-08T21:26:34.048Z,74.55
2019-03-08T21:29:05.817Z,74.97
2019-03-08T21:31:37.309Z,75.36
2019-03-08T21:34:09.714Z,75.77
2019-03-08T21:36:41.234Z,75.68
2019-03-08T21:39:14.102Z,75.86
2019-03-08T21:41:45.438Z,75.91
2019-03-08T21:44:16.918Z,75.96
2019-03-08T21:46:51.535Z,75.99
2019-03-08T21:49:22.915Z,76.30
2019-03-08T21:51:54.270Z,76.80
2019-03-08T21:54:25.536Z,77.41
2019-03-08T21:56:59.924Z,78.02
2019-03-08T21:59:31.249Z,78.14
2019-03-08T22:02:02.645Z,78.59
2019-03-08T22:04:38.177Z,78.84
2019-03-08T22:07:11.186Z,79.16
2019-03-08T22:09:47.021Z,79.40
2019-03-08T22:12:21.472Z,79.73
2019-03-08T22:14:52.943Z,80.01
2019-03-08T22:17:24.623Z,80.34
2019-03-08T22:19:56.020Z,80.74
2019-03-08T22:22:27.345Z,80.96
2019-03-08T22:24:59.057Z,81.32
2019-03-08T22:27:36.537Z,81.31
2019-03-08T22:30:10.888Z,81.41
2019-03-08T22:32:42.294Z,81.97
2019-03-08T22:35:14.646Z,82.30
2019-03-08T22:37:45.996Z,82.52
2019-03-08T22:40:17.294Z,82.90
2019-03-08T22:42:48.580Z,83.00
2019-03-08T22:45:19.853Z,83.18
2019-03-08T22:47:52.948Z,83.43
2019-03-08T22:50:24.359Z,83.74
2019-03-08T22:52:55.773Z,84.12
2019-03-08T22:55:27.050Z,84.38
2019-03-08T22:57:58.396Z,84.85
2019-03-08T23:00:53.044Z,85.00
2019-03-08T23:03:24.630Z,85.21
2019-03-08T23:05:55.994Z,85.17
2019-03-08T23:08:27.583Z,85.51
2019-03-08T23:11:00.854Z,85.61
2019-03-08T23:13:32.305Z,85.36
2019-03-08T23:16:03.645Z,85.55
2019-03-08T23:18:35.043Z,85.37
2019-03-08T23:21:06.595Z,85.74
2019-03-08T23:23:37.906Z,86.11
2019-03-08T23:26:09.193Z,85.98
2019-03-08T23:28:53.177Z,86.28
2019-03-08T23:31:37.296Z,86.61
2019-03-08T23:34:08.860Z,86.63
2019-03-08T23:36:41.068Z,86.67
2019-03-08T23:39:13.200Z,86.51
2019-03-08T23:41:44.567Z,86.95
2019-03-08T23:44:15.845Z,86.96
2019-03-08T23:46:47.535Z,86.75
2019-03-08T23:49:19.177Z,86.80
2019-03-08T23:51:52.102Z,86.68
2019-03-08T23:54:23.572Z,86.76
2019-03-08T23:56:54.830Z,87.10
2019-03-08T23:59:26.184Z,87.50
